createdAt,value
2018-08-04T00:00:33.824Z,99.90
2018-08-04T00:03:01.939Z,99.90
2018-08-04T00:05:29.999Z,99.90
2018-08-04T00:07:58.052Z,99.90
2018-08-04T00:10:26.245Z,99.90
2018-08-04T00:12:54.361Z,99.90
2018-08-04T00:15:22.413Z,99.90
2018-08-04T00:17:50.651Z,99.90
2018-08-04T00:20:18.880Z,99.90
2018-08-04T00:22:47.441Z,99.90
2018-08-04T00:25:15.525Z,99.90
2018-08-04T00:27:43.613Z,99.90
2018-08-04T00:30:14.909Z,99.90
2018-08-04T00:32:43.599Z,99.90
2018-08-04T00:35:12.836Z,99.90
2018-08-04T00:37:40.816Z,99.90
2018-08-04T00:42:38.127Z,99.90
2018-08-04T00:45:06.330Z,99.90
2018-08-04T00:47:34.582Z,99.90
2018-08-04T00:50:02.783Z,99.90
2018-08-04T00:52:30.932Z,99.90
2018-08-04T00:54:58.874Z,99.90
2018-08-04T00:57:26.941Z,99.90
2018-08-04T00:59:55.008Z,99.90
2018-08-04T01:02:22.934Z,99.90
2018-08-04T01:04:50.919Z,99.90
2018-08-04T01:07:18.971Z,99.90
2018-08-04T01:09:47.015Z,99.90
2018-08-04T01:14:42.681Z,99.90
2018-08-04T01:17:10.743Z,99.90
2018-08-04T01:19:39.000Z,99.90
2018-08-04T01:22:07.029Z,99.90
2018-08-04T01:24:35.108Z,99.90
2018-08-04T01:27:03.033Z,99.90
2018-08-04T01:29:31.075Z,99.90
2018-08-04T01:31:59.116Z,99.90
2018-08-04T01:34:27.053Z,99.90
2018-08-04T01:36:55.034Z,99.90
2018-08-04T01:39:22.986Z,99.90
2018-08-04T01:44:18.489Z,99.90
2018-08-04T01:49:14.157Z,99.90
2018-08-04T01:51:42.119Z,99.90
2018-08-04T01:54:10.177Z,99.90
2018-08-04T01:56:38.297Z,99.90
2018-08-04T01:59:06.780Z,99.90
2018-08-04T02:01:34.794Z,99.90
2018-08-04T02:04:02.905Z,99.90
2018-08-04T02:06:30.873Z,99.90
2018-08-04T02:08:58.823Z,99.90
2018-08-04T02:13:54.448Z,99.90
2018-08-04T02:16:22.690Z,99.90
2018-08-04T02:18:50.741Z,99.90
2018-08-04T02:21:18.815Z,99.90
2018-08-04T02:23:46.820Z,99.90
2018-08-04T02:26:14.760Z,99.90
2018-08-04T02:28:42.845Z,99.90
2018-08-04T02:31:11.092Z,99.90
2018-08-04T02:33:39.146Z,99.90
2018-08-04T02:36:07.194Z,99.90
2018-08-04T02:38:35.309Z,99.90
2018-08-04T02:41:03.233Z,99.90
2018-08-04T02:43:31.662Z,99.90
2018-08-04T02:46:03.462Z,99.90
2018-08-04T02:48:31.504Z,99.90
2018-08-04T02:50:59.664Z,99.90
2018-08-04T02:53:27.634Z,99.90
2018-08-04T02:55:55.704Z,99.90
2018-08-04T02:58:23.754Z,99.90
2018-08-04T03:00:51.838Z,99.90
2018-08-04T03:03:19.955Z,99.90
2018-08-04T03:05:48.025Z,99.90
2018-08-04T03:08:16.043Z,99.90
2018-08-04T03:10:44.148Z,99.90
2018-08-04T03:13:12.272Z,99.90
2018-08-04T03:15:40.418Z,99.90
2018-08-04T03:18:08.497Z,99.90
2018-08-04T03:20:36.486Z,99.90
2018-08-04T03:23:04.487Z,99.90
2018-08-04T03:25:32.468Z,99.90
2018-08-04T03:30:28.152Z,99.90
2018-08-04T03:32:56.074Z,99.90
2018-08-04T03:35:24.138Z,99.90
2018-08-04T03:37:52.483Z,99.90
2018-08-04T03:40:20.550Z,99.90
2018-08-04T03:42:48.614Z,99.90
2018-08-04T03:45:16.558Z,99.90
2018-08-04T03:47:44.554Z,99.90
2018-08-04T03:50:12.586Z,99.90
2018-08-04T03:52:40.656Z,99.90
2018-08-04T03:57:36.370Z,99.90
2018-08-04T04:00:05.675Z,99.90
2018-08-04T04:07:28.864Z,99.90
2018-08-04T04:09:56.936Z,99.90
2018-08-04T04:12:24.912Z,99.90
2018-08-04T04:14:53.282Z,99.90
2018-08-04T04:17:21.415Z,99.90
2018-08-04T04:19:49.544Z,99.90
2018-08-04T04:22:17.614Z,99.90
2018-08-04T04:24:45.604Z,99.90
2018-08-04T04:27:13.762Z,99.90
2018-08-04T04:29:41.764Z,99.90
2018-08-04T04:32:09.731Z,99.90
2018-08-04T04:34:37.748Z,99.90
2018-08-04T04:37:05.778Z,99.90
2018-08-04T04:39:33.841Z,99.90
2018-08-04T04:42:02.781Z,99.90
2018-08-04T04:44:30.898Z,99.90
2018-08-04T04:46:58.888Z,99.90
2018-08-04T04:49:26.912Z,99.90
2018-08-04T04:51:55.020Z,99.90
2018-08-04T04:59:18.311Z,99.90
2018-08-04T05:01:46.556Z,99.90
2018-08-04T05:04:14.618Z,99.90
2018-08-04T05:06:42.898Z,99.90
2018-08-04T05:09:11.082Z,99.90
2018-08-04T05:11:39.170Z,99.90
2018-08-04T05:14:07.833Z,99.90
2018-08-04T05:16:35.883Z,99.90
2018-08-04T05:19:03.948Z,99.90
2018-08-04T05:21:32.067Z,99.90
2018-08-04T05:24:00.184Z,99.90
2018-08-04T05:28:55.854Z,99.90
2018-08-04T05:31:24.150Z,99.90
2018-08-04T05:33:52.300Z,99.90
2018-08-04T05:36:20.494Z,99.90
2018-08-04T05:38:48.573Z,99.90
2018-08-04T05:41:16.715Z,99.90
2018-08-04T05:43:44.953Z,99.90
2018-08-04T05:46:13.339Z,99.90
2018-08-04T05:48:41.465Z,99.90
2018-08-04T05:51:09.278Z,99.90
2018-08-04T05:53:37.202Z,99.90
2018-08-04T05:56:05.526Z,99.90
2018-08-04T05:58:34.084Z,99.90
2018-08-04T06:01:02.038Z,99.90
2018-08-04T06:03:30.146Z,99.90
2018-08-04T06:05:58.293Z,99.90
2018-08-04T06:08:26.228Z,99.90
2018-08-04T06:10:54.815Z,99.90
2018-08-04T06:13:24.625Z,99.90
2018-08-04T06:15:52.518Z,99.90
2018-08-04T06:18:20.534Z,99.90
2018-08-04T06:20:48.650Z,99.90
2018-08-04T06:23:16.614Z,99.90
2018-08-04T06:28:12.825Z,99.90
2018-08-04T06:30:42.436Z,99.90
2018-08-04T06:33:13.209Z,99.90
2018-08-04T06:35:42.855Z,99.90
2018-08-04T06:38:13.005Z,99.90
2018-08-04T06:40:41.930Z,99.90
2018-08-04T06:45:39.579Z,99.90
2018-08-04T06:48:08.476Z,99.90
2018-08-04T06:50:38.588Z,99.90
2018-08-04T06:53:07.514Z,99.90
2018-08-04T06:55:35.600Z,99.90
2018-08-04T06:58:03.460Z,99.90
2018-08-04T07:00:32.013Z,99.90
2018-08-04T07:05:29.095Z,98.80
2018-08-04T07:07:59.550Z,98.90
2018-08-04T07:10:28.690Z,98.80
2018-08-04T07:12:57.124Z,98.40
2018-08-04T07:15:25.212Z,98.40
2018-08-04T07:17:53.356Z,98.10
2018-08-04T07:22:55.453Z,97.70
2018-08-04T07:25:30.924Z,97.60
2018-08-04T07:28:05.138Z,97.70
2018-08-04T07:33:29.876Z,98.20
2018-08-04T07:36:04.046Z,98.50
2018-08-04T07:41:23.236Z,99.10
2018-08-04T07:43:55.726Z,99.70
2018-08-04T07:49:18.144Z,99.90
2018-08-04T07:51:50.048Z,99.40
2018-08-04T07:54:18.143Z,97.90
2018-08-04T07:56:46.026Z,97.30
2018-08-04T07:59:14.484Z,96.70
2018-08-04T08:01:42.226Z,95.80
2018-08-04T08:04:09.948Z,95.40
2018-08-04T08:06:37.618Z,95.00
2018-08-04T08:09:06.283Z,94.60
2018-08-04T08:11:34.000Z,93.80
2018-08-04T08:16:29.186Z,91.10
2018-08-04T08:20:26.171Z,89.80
2018-08-04T08:22:53.872Z,87.70
2018-08-04T08:25:22.371Z,86.70
2018-08-04T08:27:50.153Z,85.40
2018-08-04T08:30:17.869Z,84.30
2018-08-04T08:32:45.590Z,82.20
2018-08-04T08:35:13.286Z,81.50
2018-08-04T08:40:09.302Z,79.30
2018-08-04T08:42:37.863Z,78.60
2018-08-04T08:45:06.536Z,78.70
2018-08-04T08:47:34.250Z,77.60
2018-08-04T08:50:03.157Z,77.60
2018-08-04T08:57:28.149Z,77.70
2018-08-04T08:59:56.755Z,78.60
2018-08-04T09:02:25.504Z,79.00
2018-08-04T09:04:53.274Z,80.60
2018-08-04T09:07:21.864Z,80.70
2018-08-04T09:09:50.415Z,80.70
2018-08-04T09:14:45.664Z,80.80
2018-08-04T09:17:14.249Z,81.00
2018-08-04T09:19:42.021Z,81.30
2018-08-04T09:22:10.565Z,81.00
2018-08-04T09:27:16.832Z,81.10
2018-08-04T09:29:44.574Z,80.90
2018-08-04T09:32:12.390Z,80.70
2018-08-04T09:34:40.913Z,80.50
2018-08-04T09:37:08.718Z,80.70
2018-08-04T09:39:37.273Z,81.20
2018-08-04T09:42:06.123Z,81.70
2018-08-04T09:44:34.697Z,82.20
2018-08-04T09:47:03.389Z,82.70
2018-08-04T09:49:32.222Z,83.30
2018-08-04T09:52:00.048Z,84.10
2018-08-04T09:59:24.465Z,86.50
2018-08-04T10:01:57.277Z,86.60
2018-08-04T10:04:25.094Z,86.50
2018-08-04T10:06:52.859Z,86.40
2018-08-04T10:09:21.456Z,86.40
2018-08-04T10:11:50.036Z,86.50
2018-08-04T10:14:18.615Z,86.50
2018-08-04T10:16:47.274Z,86.90
2018-08-04T10:19:15.897Z,87.10
2018-08-04T10:21:44.545Z,85.20
2018-08-04T10:24:13.404Z,81.50
2018-08-04T10:26:42.125Z,80.00
2018-08-04T10:29:10.808Z,76.90
2018-08-04T10:31:39.505Z,76.10
2018-08-04T10:34:07.443Z,74.10
2018-08-04T10:36:35.544Z,73.60
2018-08-04T10:39:04.626Z,73.50
2018-08-04T10:44:01.298Z,72.90
2018-08-04T10:46:30.112Z,71.00
2018-08-04T10:48:59.139Z,70.30
2018-08-04T10:51:27.869Z,69.90
2018-08-04T10:53:56.966Z,68.30
2018-08-04T10:56:25.834Z,67.40
2018-08-04T10:58:54.600Z,65.90
2018-08-04T11:03:52.189Z,65.20
2018-08-04T11:06:21.433Z,63.10
2018-08-04T11:08:51.222Z,62.20
2018-08-04T11:11:20.197Z,61.50
2018-08-04T11:13:49.264Z,60.60
2018-08-04T11:16:18.532Z,59.80
2018-08-04T11:18:47.552Z,59.50
2018-08-04T11:21:16.533Z,59.10
2018-08-04T11:23:45.839Z,58.30
2018-08-04T11:26:14.700Z,57.80
2018-08-04T11:28:43.631Z,57.40
2018-08-04T11:31:12.509Z,56.70
2018-08-04T11:33:41.301Z,56.70
2018-08-04T11:36:10.079Z,56.60
2018-08-04T11:38:38.769Z,56.30
2018-08-04T11:41:07.624Z,56.00
2018-08-04T11:43:36.511Z,55.00
2018-08-04T11:46:05.374Z,54.70
2018-08-04T11:48:34.504Z,54.60
2018-08-04T11:51:03.468Z,54.40
2018-08-04T11:53:32.532Z,54.10
2018-08-04T11:56:01.583Z,53.70
2018-08-04T11:58:30.432Z,52.80
2018-08-04T12:00:59.309Z,52.50
2018-08-04T12:03:28.125Z,51.70
2018-08-04T12:08:37.683Z,52.10
2018-08-04T12:11:06.770Z,51.80
2018-08-04T12:13:35.643Z,52.10
2018-08-04T12:16:04.318Z,51.80
2018-08-04T12:18:32.908Z,51.30
2018-08-04T12:21:01.400Z,51.40
2018-08-04T12:23:30.928Z,50.80
2018-08-04T12:25:59.538Z,50.30
2018-08-04T12:28:28.059Z,50.40
2018-08-04T12:30:56.675Z,50.00
2018-08-04T12:33:25.255Z,49.80
2018-08-04T12:35:54.709Z,49.20
2018-08-04T12:38:23.285Z,49.80
2018-08-04T12:43:21.791Z,48.90
2018-08-04T12:45:50.451Z,47.40
2018-08-04T12:48:19.465Z,46.60
2018-08-04T12:53:16.684Z,47.30
2018-08-04T12:55:45.852Z,47.90
2018-08-04T13:00:43.157Z,46.80
2018-08-04T13:03:11.928Z,46.70
2018-08-04T13:05:40.835Z,46.50
2018-08-04T13:08:09.591Z,46.60
2018-08-04T13:10:38.231Z,46.80
2018-08-04T13:13:06.889Z,47.70
2018-08-04T13:15:35.497Z,47.90
2018-08-04T13:18:04.347Z,48.30
2018-08-04T13:20:33.057Z,49.70
2018-08-04T13:23:01.772Z,52.60
2018-08-04T13:25:30.409Z,53.50
2018-08-04T13:27:59.032Z,55.10
2018-08-04T13:30:27.703Z,56.90
2018-08-04T13:32:56.248Z,58.60
2018-08-04T13:35:25.237Z,60.30
2018-08-04T13:37:54.097Z,63.50
2018-08-04T13:40:22.608Z,67.60
2018-08-04T13:46:49.089Z,69.10
2018-08-04T13:49:21.281Z,71.10
2018-08-04T13:54:16.679Z,70.80
2018-08-04T13:59:13.686Z,74.30
2018-08-04T14:01:41.564Z,74.30
2018-08-04T14:04:09.546Z,75.50
2018-08-04T14:06:37.474Z,74.70
2018-08-04T14:09:06.724Z,74.60
2018-08-04T14:11:35.400Z,75.90
2018-08-04T14:14:03.314Z,74.40
2018-08-04T14:16:31.983Z,74.30
2018-08-04T14:18:59.806Z,75.00
2018-08-04T14:21:29.485Z,75.20
2018-08-04T14:23:58.749Z,75.20
2018-08-04T14:26:27.888Z,75.20
2018-08-04T14:28:56.534Z,75.90
2018-08-04T14:31:25.060Z,76.70
2018-08-04T14:33:53.802Z,76.60
2018-08-04T14:36:22.484Z,76.30
2018-08-04T14:43:47.804Z,72.30
2018-08-04T14:46:15.666Z,74.40
2018-08-04T14:48:43.550Z,73.30
2018-08-04T14:51:11.995Z,73.70
2018-08-04T14:53:40.468Z,73.80
2018-08-04T14:56:08.406Z,73.70
2018-08-04T14:58:37.074Z,74.20
2018-08-04T15:01:05.699Z,74.40
2018-08-04T15:03:34.357Z,75.00
2018-08-04T15:06:02.991Z,74.80
2018-08-04T15:26:54.729Z,85.80
2018-08-04T15:29:22.997Z,88.40
2018-08-04T15:31:51.171Z,91.00
2018-08-04T15:34:20.109Z,93.40
2018-08-04T15:39:34.522Z,98.40
2018-08-04T15:50:04.275Z,99.90
2018-08-04T15:52:33.241Z,99.90
2018-08-04T16:03:04.942Z,99.90
2018-08-04T16:05:33.615Z,99.90
2018-08-04T16:08:02.046Z,99.90
2018-08-04T16:10:30.207Z,99.90
2018-08-04T16:12:59.117Z,99.90
2018-08-04T16:15:27.299Z,99.90
2018-08-04T16:17:55.642Z,99.90
2018-08-04T16:20:24.057Z,99.90
2018-08-04T16:22:53.606Z,99.90
2018-08-04T16:25:22.045Z,99.90
2018-08-04T16:27:50.604Z,99.90
2018-08-04T16:30:19.206Z,99.90
2018-08-04T16:32:47.621Z,99.90
2018-08-04T16:35:16.265Z,99.90
2018-08-04T16:37:49.850Z,99.90
2018-08-04T16:40:19.101Z,99.90
2018-08-04T16:42:52.799Z,99.90
2018-08-04T16:45:21.733Z,99.90
2018-08-04T16:47:51.353Z,99.90
2018-08-04T16:50:20.238Z,99.90
2018-08-04T16:52:51.272Z,99.90
2018-08-04T16:55:21.402Z,99.90
2018-08-04T16:57:50.856Z,99.90
2018-08-04T17:00:18.901Z,99.90
2018-08-04T17:02:47.047Z,99.90
2018-08-04T17:05:15.027Z,99.90
2018-08-04T17:07:44.124Z,99.90
2018-08-04T17:10:12.020Z,99.90
2018-08-04T17:12:40.790Z,99.90
2018-08-04T17:15:09.992Z,99.90
2018-08-04T17:17:38.111Z,99.90
2018-08-04T17:20:06.092Z,99.90
2018-08-04T17:22:34.009Z,99.90
2018-08-04T17:25:02.013Z,99.90
2018-08-04T17:27:30.131Z,99.90
2018-08-04T17:29:58.031Z,99.90
2018-08-04T17:32:25.945Z,99.90
2018-08-04T17:34:53.876Z,99.90
2018-08-04T17:37:21.804Z,99.90
2018-08-04T17:39:49.686Z,99.90
2018-08-04T17:42:17.644Z,99.90
2018-08-04T17:44:45.560Z,99.90
2018-08-04T17:47:13.840Z,99.90
2018-08-04T17:49:42.959Z,99.90
2018-08-04T17:52:11.635Z,99.90
2018-08-04T17:57:07.655Z,99.90
2018-08-04T17:59:36.863Z,99.90
2018-08-04T18:02:09.140Z,99.90
2018-08-04T18:04:37.154Z,99.90
2018-08-04T18:07:05.784Z,99.90
2018-08-04T18:09:33.700Z,99.90
2018-08-04T18:12:02.304Z,99.90
2018-08-04T18:14:30.169Z,99.90
2018-08-04T18:16:58.303Z,99.90
2018-08-04T18:19:26.375Z,99.90
2018-08-04T18:21:57.421Z,99.90
2018-08-04T18:24:25.861Z,99.90
2018-08-04T18:26:54.925Z,99.90
2018-08-04T18:29:25.908Z,99.90
2018-08-04T18:31:54.012Z,99.90
2018-08-04T18:34:22.149Z,99.90
2018-08-04T18:36:50.329Z,99.90
2018-08-04T18:39:18.389Z,99.90
2018-08-04T18:41:46.284Z,99.90
2018-08-04T18:44:15.493Z,99.90
2018-08-04T18:46:43.372Z,99.90
2018-08-04T18:49:12.082Z,99.90
2018-08-04T18:51:39.891Z,99.90
2018-08-04T18:54:09.125Z,99.90
2018-08-04T18:56:37.287Z,99.90
2018-08-04T18:59:07.596Z,99.90
2018-08-04T19:01:35.557Z,99.90
2018-08-04T19:04:03.550Z,99.90
2018-08-04T19:06:33.816Z,99.90
2018-08-04T19:09:01.839Z,99.90
2018-08-04T19:11:40.311Z,99.90
2018-08-04T19:14:09.350Z,99.90
2018-08-04T19:16:39.823Z,99.90
2018-08-04T19:19:08.755Z,99.90
2018-08-04T19:24:22.852Z,99.90
2018-08-04T19:26:52.312Z,99.90
2018-08-04T19:29:20.582Z,99.90
2018-08-04T19:31:48.357Z,99.90
2018-08-04T19:34:16.114Z,99.90
2018-08-04T19:36:43.893Z,99.90
2018-08-04T19:39:11.675Z,99.90
2018-08-04T19:41:39.463Z,99.90
2018-08-04T19:44:08.603Z,99.90
2018-08-04T19:46:36.511Z,99.90
2018-08-04T19:51:49.900Z,99.90
2018-08-04T19:54:17.975Z,99.90
2018-08-04T19:59:34.421Z,99.90
2018-08-04T20:02:06.828Z,99.90
2018-08-04T20:04:35.191Z,99.90
2018-08-04T20:07:04.200Z,99.90
2018-08-04T20:09:33.495Z,99.90
2018-08-04T20:12:03.523Z,99.90
2018-08-04T20:14:32.804Z,99.90
2018-08-04T20:17:00.862Z,99.90
2018-08-04T20:19:28.785Z,99.90
2018-08-04T20:21:56.649Z,99.90
2018-08-04T20:24:24.473Z,99.90
2018-08-04T20:26:52.339Z,99.90
2018-08-04T20:29:20.459Z,99.90
2018-08-04T20:31:48.840Z,99.90
2018-08-04T20:34:17.325Z,99.90
2018-08-04T20:36:46.167Z,99.90
2018-08-04T20:39:16.510Z,99.90
2018-08-04T20:41:46.986Z,99.90
2018-08-04T20:44:15.658Z,99.90
2018-08-04T20:46:44.057Z,99.90
2018-08-04T20:49:12.031Z,99.90
2018-08-04T20:51:39.847Z,99.90
2018-08-04T20:54:07.735Z,99.90
2018-08-04T20:56:35.731Z,99.90
2018-08-04T20:59:03.605Z,99.90
2018-08-04T21:01:35.903Z,99.90
2018-08-04T21:04:03.703Z,99.90
2018-08-04T21:06:31.496Z,99.90
2018-08-04T21:08:59.360Z,99.90
2018-08-04T21:11:27.168Z,99.90
2018-08-04T21:13:55.033Z,99.90
2018-08-04T21:16:22.853Z,99.90
2018-08-04T21:18:50.738Z,99.90
2018-08-04T21:21:19.427Z,99.90
2018-08-04T21:23:47.210Z,99.90
2018-08-04T21:26:15.153Z,99.90
2018-08-04T21:28:43.180Z,99.90
2018-08-04T21:31:11.411Z,99.90
2018-08-04T21:33:39.165Z,99.90
2018-08-04T21:36:06.921Z,99.90
2018-08-04T21:38:34.915Z,99.90
2018-08-04T21:41:02.787Z,99.90
2018-08-04T21:43:30.522Z,99.90
2018-08-04T21:45:58.748Z,99.90
2018-08-04T21:48:26.703Z,99.90
2018-08-04T21:50:54.643Z,99.90
2018-08-04T21:53:22.434Z,99.90
2018-08-04T21:55:50.292Z,99.90
2018-08-04T21:58:18.094Z,99.90
2018-08-04T22:00:51.405Z,99.90
2018-08-04T22:03:19.637Z,99.90
2018-08-04T22:05:47.534Z,99.90
2018-08-04T22:09:23.794Z,99.90
2018-08-04T22:11:52.536Z,99.90
2018-08-04T22:14:20.584Z,99.90
2018-08-04T22:16:48.356Z,99.90
2018-08-04T22:19:16.229Z,99.90
2018-08-04T22:21:44.182Z,99.90
2018-08-04T22:24:12.078Z,99.90
2018-08-04T22:26:39.937Z,99.90
2018-08-04T22:29:08.520Z,99.90
2018-08-04T22:31:36.374Z,99.90
2018-08-04T22:34:04.163Z,99.90
2018-08-04T22:36:32.781Z,99.90
2018-08-04T22:39:00.627Z,99.90
2018-08-04T22:41:28.863Z,99.90
2018-08-04T22:43:56.600Z,99.90
2018-08-04T22:46:25.320Z,99.90
2018-08-04T22:48:54.329Z,99.90
2018-08-04T22:51:25.682Z,99.90
2018-08-04T22:53:54.585Z,99.90
2018-08-04T22:56:23.205Z,99.90
2018-08-04T22:58:51.577Z,99.90
2018-08-04T23:01:20.199Z,99.90
2018-08-04T23:03:49.626Z,99.90
2018-08-04T23:09:04.518Z,99.90
2018-08-04T23:11:32.994Z,99.90
2018-08-04T23:14:01.870Z,99.90
2018-08-04T23:16:30.588Z,99.90
2018-08-04T23:18:58.694Z,99.90
2018-08-04T23:21:28.796Z,99.90
2018-08-04T23:23:57.769Z,99.90
2018-08-04T23:26:26.566Z,99.90
2018-08-04T23:28:55.737Z,99.90
2018-08-04T23:31:30.386Z,99.90
2018-08-04T23:33:59.334Z,99.90
2018-08-04T23:36:29.247Z,99.90
2018-08-04T23:38:57.600Z,99.90
2018-08-04T23:41:25.958Z,99.90
2018-08-04T23:50:41.601Z,99.90
2018-08-04T23:53:09.884Z,99.90
2018-08-04T23:55:37.854Z,99.90
2018-08-04T23:58:06.635Z,99.90
